Time;durP1;ratioP1;P1;durP2;ratioP2;P2;SDS_P1;SDS_P2;PMS_P1;PMS_P2;Temp;Humidity;BMP_temperature;BMP_pressure;BME280_temperature;BME280_humidity;BME280_pressure;Samples;Min_cycle;Max_cycle;Signal;HPM_P1;HPM_P2
2022/07/24 00:00:41;;;;;;;6.80;2.80;;;;;;;;;;5019364;28;20081;-63
2022/07/24 00:03:08;;;;;;;5.85;3.42;;;;;;;;;;5020226;28;20053;-63
2022/07/24 00:05:36;;;;;;;4.68;2.92;;;;;;;;;;5018778;28;20052;-64
2022/07/24 00:08:03;;;;;;;5.25;3.00;;;;;;;;;;5019996;28;20056;-63
2022/07/24 00:10:31;;;;;;;8.80;3.40;;;;;;;;;;5015013;28;20100;-63
2022/07/24 00:12:58;;;;;;;5.03;3.58;;;;;;;;;;5022480;28;20053;-63
2022/07/24 00:15:26;;;;;;;4.22;2.80;;;;;;;;;;4999877;28;20501;-63
2022/07/24 00:17:54;;;;;;;6.93;3.05;;;;;;;;;;5018470;28;20045;-63
2022/07/24 00:20:21;;;;;;;5.60;3.60;;;;;;;;;;5021146;28;20038;-63
2022/07/24 00:22:48;;;;;;;5.68;3.10;;;;;;;;;;5017614;28;20234;-64
2022/07/24 00:25:16;;;;;;;5.15;3.00;;;;;;;;;;5011870;28;20037;-63
2022/07/24 00:27:43;;;;;;;5.25;3.40;;;;;;;;;;5017466;28;20049;-63
2022/07/24 00:30:10;;;;;;;5.60;3.35;;;;;;;;;;5010960;28;20049;-64
2022/07/24 00:32:39;;;;;;;7.85;3.58;;;;;;;;;;5010626;28;20046;-63
2022/07/24 00:35:07;;;;;;;6.93;3.53;;;;;;;;;;5014880;28;20050;-63
2022/07/24 00:37:34;;;;;;;4.38;3.45;;;;;;;;;;5023362;28;20058;-63
2022/07/24 00:40:01;;;;;;;4.25;3.55;;;;;;;;;;4999314;28;20045;-63
2022/07/24 00:42:28;;;;;;;6.68;3.30;;;;;;;;;;5024077;28;20107;-63
2022/07/24 00:44:55;;;;;;;5.53;3.50;;;;;;;;;;5015356;28;20416;-63
2022/07/24 00:47:23;;;;;;;5.10;3.92;;;;;;;;;;4996601;28;20058;-63
2022/07/24 00:49:51;;;;;;;4.60;3.60;;;;;;;;;;5024206;28;20535;-64
2022/07/24 00:52:19;;;;;;;4.82;3.50;;;;;;;;;;5017123;28;20041;-63
2022/07/24 00:54:46;;;;;;;7.00;3.70;;;;;;;;;;5019798;28;20050;-63
2022/07/24 00:57:13;;;;;;;6.28;3.70;;;;;;;;;;5021175;28;20677;-63
2022/07/24 00:59:40;;;;;;;9.48;3.65;;;;;;;;;;5018473;28;20053;-63
2022/07/24 01:02:08;;;;;;;5.13;4.22;;;;;;;;;;5013841;28;20065;-63
2022/07/24 01:04:35;;;;;;;4.30;3.70;;;;;;;;;;5021066;28;20057;-63
2022/07/24 01:07:04;;;;;;;6.10;4.10;;;;;;;;;;5021909;28;20750;-63
2022/07/24 01:09:31;;;;;;;5.88;4.15;;;;;;;;;;5007982;28;20049;-63
2022/07/24 01:11:59;;;;;;;5.50;4.45;;;;;;;;;;5009527;28;20140;-63
2022/07/24 01:14:27;;;;;;;5.13;4.20;;;;;;;;;;5023811;28;20045;-63
2022/07/24 01:16:54;;;;;;;8.13;4.63;;;;;;;;;;5023895;28;20156;-64
2022/07/24 01:19:21;;;;;;;5.18;4.55;;;;;;;;;;5019044;28;20099;-63
2022/07/24 01:21:50;;;;;;;7.05;5.25;;;;;;;;;;5021810;28;20057;-63
2022/07/24 01:24:18;;;;;;;8.85;5.47;;;;;;;;;;5006180;28;20460;-63
2022/07/24 01:26:46;;;;;;;5.72;4.82;;;;;;;;;;5017073;28;20057;-63
2022/07/24 01:29:13;;;;;;;8.68;4.63;;;;;;;;;;5022410;28;20112;-63
2022/07/24 01:31:40;;;;;;;6.22;5.10;;;;;;;;;;5015494;28;20045;-63
2022/07/24 01:34:08;;;;;;;8.57;4.88;;;;;;;;;;5017859;28;20049;-64
2022/07/24 01:36:35;;;;;;;7.47;4.75;;;;;;;;;;5018046;28;20092;-64
2022/07/24 01:39:04;;;;;;;7.22;4.85;;;;;;;;;;5021202;28;20719;-63
2022/07/24 01:41:31;;;;;;;8.45;5.38;;;;;;;;;;5022339;28;20076;-63
2022/07/24 01:43:59;;;;;;;7.22;5.55;;;;;;;;;;5016539;28;20072;-63
2022/07/24 01:46:26;;;;;;;6.07;5.45;;;;;;;;;;5005027;28;20057;-62
2022/07/24 01:48:53;;;;;;;6.22;5.07;;;;;;;;;;5022648;28;20061;-63
2022/07/24 01:51:20;;;;;;;5.45;4.75;;;;;;;;;;5021792;28;20057;-63
2022/07/24 01:53:48;;;;;;;7.93;5.13;;;;;;;;;;5022588;28;20041;-64
2022/07/24 01:56:16;;;;;;;6.35;5.38;;;;;;;;;;5022341;28;20470;-63
2022/07/24 01:58:43;;;;;;;6.07;5.38;;;;;;;;;;5019300;28;20489;-63
2022/07/24 02:01:11;;;;;;;6.60;5.80;;;;;;;;;;4999560;28;20057;-63
2022/07/24 02:03:38;;;;;;;6.43;5.72;;;;;;;;;;5020241;28;20519;-63
2022/07/24 02:06:06;;;;;;;6.47;5.50;;;;;;;;;;5014132;28;20064;-64
2022/07/24 02:08:33;;;;;;;7.25;5.50;;;;;;;;;;5016725;28;20492;-63
2022/07/24 02:11:00;;;;;;;7.88;5.35;;;;;;;;;;5019798;28;20064;-63
2022/07/24 02:13:29;;;;;;;9.18;5.78;;;;;;;;;;5023458;28;20045;-63
2022/07/24 02:15:56;;;;;;;8.02;5.93;;;;;;;;;;5021227;28;20284;-63
2022/07/24 02:18:23;;;;;;;8.63;6.72;;;;;;;;;;5018257;28;20061;-63
2022/07/24 02:20:51;;;;;;;7.43;5.40;;;;;;;;;;5020227;28;20045;-63
2022/07/24 02:23:18;;;;;;;8.27;5.72;;;;;;;;;;5026702;28;20431;-64
2022/07/24 02:25:46;;;;;;;9.07;6.20;;;;;;;;;;5025604;28;20053;-63
2022/07/24 02:28:13;;;;;;;8.45;5.95;;;;;;;;;;5015439;28;20127;-63
2022/07/24 02:30:42;;;;;;;9.05;6.10;;;;;;;;;;5023138;28;20570;-63
2022/07/24 02:33:09;;;;;;;9.52;6.22;;;;;;;;;;5017399;28;20053;-63
2022/07/24 02:35:37;;;;;;;7.05;6.28;;;;;;;;;;5015893;28;20045;-63
2022/07/24 02:38:04;;;;;;;8.43;6.63;;;;;;;;;;5024935;28;20061;-63
2022/07/24 02:40:32;;;;;;;8.20;6.18;;;;;;;;;;5018283;28;20430;-63
2022/07/24 02:42:59;;;;;;;7.15;5.65;;;;;;;;;;5026402;28;20435;-63
2022/07/24 02:45:26;;;;;;;7.38;6.25;;;;;;;;;;5022237;28;20115;-63
2022/07/24 02:47:56;;;;;;;9.70;6.40;;;;;;;;;;5022863;28;20049;-64
2022/07/24 02:50:25;;;;;;;9.13;6.20;;;;;;;;;;5017383;28;20080;-63
2022/07/24 02:52:53;;;;;;;8.07;6.30;;;;;;;;;;5017332;28;20061;-63
2022/07/24 02:55:20;;;;;;;8.80;6.40;;;;;;;;;;5025753;28;20114;-63
2022/07/24 02:57:47;;;;;;;8.43;6.68;;;;;;;;;;5022982;28;20052;-63
2022/07/24 03:00:16;;;;;;;7.85;5.72;;;;;;;;;;5023226;28;20120;-63
2022/07/24 03:02:43;;;;;;;8.30;6.38;;;;;;;;;;5022856;28;20049;-63
2022/07/24 03:05:12;;;;;;;8.60;6.22;;;;;;;;;;5015864;28;20052;-63
2022/07/24 03:07:39;;;;;;;8.77;6.40;;;;;;;;;;5011323;28;20161;-63
2022/07/24 03:10:07;;;;;;;8.38;6.22;;;;;;;;;;4998349;28;20058;-63
2022/07/24 03:12:35;;;;;;;11.68;7.63;;;;;;;;;;5018746;28;20054;-63
2022/07/24 03:15:02;;;;;;;8.93;6.57;;;;;;;;;;4996247;28;20064;-63
2022/07/24 03:17:29;;;;;;;9.18;7.20;;;;;;;;;;5016188;28;20054;-63
2022/07/24 03:19:57;;;;;;;8.50;6.78;;;;;;;;;;5020515;28;20115;-63
2022/07/24 03:22:25;;;;;;;10.18;6.47;;;;;;;;;;5018649;28;20688;-64
2022/07/24 03:24:52;;;;;;;8.60;7.30;;;;;;;;;;5024621;28;20054;-64
2022/07/24 03:27:20;;;;;;;10.52;7.38;;;;;;;;;;5004857;28;20058;-64
2022/07/24 03:29:47;;;;;;;9.32;6.68;;;;;;;;;;5018457;28;20419;-63
2022/07/24 03:32:14;;;;;;;10.20;7.60;;;;;;;;;;5011038;28;20112;-63
2022/07/24 03:34:41;;;;;;;8.88;7.43;;;;;;;;;;5001443;28;20049;-63
2022/07/24 03:37:08;;;;;;;12.02;7.55;;;;;;;;;;5020112;28;20061;-64
2022/07/24 03:39:37;;;;;;;10.65;7.43;;;;;;;;;;5019927;28;20057;-63
2022/07/24 03:42:04;;;;;;;9.10;7.13;;;;;;;;;;5020612;28;20111;-63
2022/07/24 03:44:31;;;;;;;9.80;6.97;;;;;;;;;;5021511;28;20106;-63
2022/07/24 03:46:59;;;;;;;9.27;6.95;;;;;;;;;;5013406;28;20527;-63
2022/07/24 03:49:26;;;;;;;9.43;7.50;;;;;;;;;;5018297;28;20053;-63
2022/07/24 03:51:54;;;;;;;8.23;7.32;;;;;;;;;;5020059;28;20081;-63
2022/07/24 03:54:22;;;;;;;9.13;7.05;;;;;;;;;;4995157;28;20054;-63
2022/07/24 03:56:51;;;;;;;9.85;6.88;;;;;;;;;;5017333;28;20068;-63
2022/07/24 03:59:18;;;;;;;10.13;7.60;;;;;;;;;;4999254;28;20060;-63
2022/07/24 04:01:45;;;;;;;9.68;7.28;;;;;;;;;;5013931;28;20108;-63
2022/07/24 04:04:13;;;;;;;9.70;7.80;;;;;;;;;;5022946;28;20053;-63
2022/07/24 04:06:41;;;;;;;12.15;7.55;;;;;;;;;;5018449;28;20054;-64
2022/07/24 04:09:08;;;;;;;10.93;7.68;;;;;;;;;;5021653;28;20065;-63
2022/07/24 04:11:35;;;;;;;10.63;8.13;;;;;;;;;;5021181;28;20050;-63
2022/07/24 04:14:04;;;;;;;11.32;8.43;;;;;;;;;;5023219;28;20459;-63
2022/07/24 04:16:31;;;;;;;14.02;7.65;;;;;;;;;;5016668;28;20056;-63
2022/07/24 04:18:58;;;;;;;9.80;7.90;;;;;;;;;;5021630;28;20049;-63
2022/07/24 04:21:26;;;;;;;10.05;7.60;;;;;;;;;;5018729;28;20045;-63
2022/07/24 04:23:53;;;;;;;9.07;7.78;;;;;;;;;;5022703;28;20045;-63
2022/07/24 04:26:20;;;;;;;12.15;9.15;;;;;;;;;;5019458;28;20053;-63
2022/07/24 04:28:47;;;;;;;13.32;7.72;;;;;;;;;;5021695;28;20054;-63
2022/07/24 04:31:16;;;;;;;11.10;8.07;;;;;;;;;;5019232;28;20057;-63
2022/07/24 04:33:43;;;;;;;10.90;8.40;;;;;;;;;;5014082;28;20042;-63
2022/07/24 04:36:11;;;;;;;11.98;8.07;;;;;;;;;;4998596;28;20054;-63
2022/07/24 04:38:38;;;;;;;12.75;9.27;;;;;;;;;;5014570;28;20052;-63
2022/07/24 04:41:05;;;;;;;12.57;7.90;;;;;;;;;;5019721;28;20471;-63
2022/07/24 04:43:32;;;;;;;13.10;8.73;;;;;;;;;;5017510;28;20046;-63
2022/07/24 04:46:00;;;;;;;11.88;8.27;;;;;;;;;;5023483;28;20095;-63
2022/07/24 04:48:29;;;;;;;10.35;8.55;;;;;;;;;;5020367;28;20107;-64
2022/07/24 04:50:56;;;;;;;8.68;7.57;;;;;;;;;;5019395;28;20050;-63
2022/07/24 04:53:24;;;;;;;10.55;7.93;;;;;;;;;;5022881;28;20554;-63
2022/07/24 04:55:51;;;;;;;14.30;8.68;;;;;;;;;;5022817;28;20157;-63
2022/07/24 04:58:18;;;;;;;10.77;8.88;;;;;;;;;;5021382;28;20052;-64
2022/07/24 05:00:45;;;;;;;10.68;8.07;;;;;;;;;;5020707;28;20064;-63
2022/07/24 05:03:13;;;;;;;10.40;8.45;;;;;;;;;;5028458;28;20045;-63
2022/07/24 05:05:41;;;;;;;13.68;9.20;;;;;;;;;;5027742;28;20808;-63
2022/07/24 05:08:08;;;;;;;14.82;8.80;;;;;;;;;;5025758;28;20115;-64
2022/07/24 05:10:35;;;;;;;10.52;8.18;;;;;;;;;;5027960;28;20099;-64
2022/07/24 05:13:03;;;;;;;12.30;8.57;;;;;;;;;;5025930;28;20056;-63
2022/07/24 05:15:30;;;;;;;13.80;8.82;;;;;;;;;;5025031;28;20148;-64
2022/07/24 05:17:57;;;;;;;10.05;8.70;;;;;;;;;;5024553;28;20056;-63
2022/07/24 05:20:24;;;;;;;9.57;8.25;;;;;;;;;;5024067;28;20049;-64
2022/07/24 05:22:53;;;;;;;11.25;8.80;;;;;;;;;;5023406;28;20634;-64
2022/07/24 05:25:20;;;;;;;11.73;9.18;;;;;;;;;;5024618;28;20045;-63
2022/07/24 05:27:48;;;;;;;11.95;8.60;;;;;;;;;;5025539;28;20588;-63
2022/07/24 05:30:15;;;;;;;12.73;8.65;;;;;;;;;;5021959;28;20073;-64
2022/07/24 05:32:42;;;;;;;13.77;8.45;;;;;;;;;;5024777;28;20484;-63
2022/07/24 05:35:10;;;;;;;13.43;9.02;;;;;;;;;;5026878;28;20055;-63
2022/07/24 05:37:37;;;;;;;12.93;8.80;;;;;;;;;;5026269;28;20060;-63
2022/07/24 05:40:06;;;;;;;18.00;9.95;;;;;;;;;;5023786;28;20049;-64
2022/07/24 05:42:34;;;;;;;15.93;9.73;;;;;;;;;;5027644;28;20535;-63
2022/07/24 05:45:01;;;;;;;14.48;9.95;;;;;;;;;;5023504;28;20057;-63
2022/07/24 05:47:28;;;;;;;13.82;9.90;;;;;;;;;;5025324;28;20727;-63
2022/07/24 05:49:55;;;;;;;15.52;9.63;;;;;;;;;;5023951;28;20066;-63
2022/07/24 05:52:23;;;;;;;14.07;10.35;;;;;;;;;;5008133;28;20118;-63
2022/07/24 05:54:50;;;;;;;19.48;10.45;;;;;;;;;;5026233;28;20164;-63
2022/07/24 05:57:18;;;;;;;14.15;10.32;;;;;;;;;;5006456;28;20544;-64
2022/07/24 05:59:46;;;;;;;14.50;10.18;;;;;;;;;;5016067;28;20046;-63
2022/07/24 06:02:13;;;;;;;16.63;10.52;;;;;;;;;;5023621;28;20496;-63
2022/07/24 06:04:41;;;;;;;13.95;10.20;;;;;;;;;;5004962;28;20056;-64
2022/07/24 06:07:09;;;;;;;14.18;9.95;;;;;;;;;;5018562;28;20053;-63
2022/07/24 06:09:37;;;;;;;14.25;10.35;;;;;;;;;;5020635;28;20041;-64
2022/07/24 06:12:04;;;;;;;13.93;11.18;;;;;;;;;;5021891;28;20046;-64
2022/07/24 06:14:33;;;;;;;14.45;10.50;;;;;;;;;;5022736;28;20096;-64
2022/07/24 06:17:01;;;;;;;11.55;10.25;;;;;;;;;;5017882;28;20064;-63
2022/07/24 06:19:28;;;;;;;14.60;10.45;;;;;;;;;;5017042;28;20052;-64
2022/07/24 06:21:55;;;;;;;13.95;11.07;;;;;;;;;;5022765;28;20115;-63
2022/07/24 06:24:23;;;;;;;16.48;11.18;;;;;;;;;;5025361;28;20500;-64
2022/07/24 06:26:50;;;;;;;13.48;10.88;;;;;;;;;;5019971;28;20674;-63
2022/07/24 06:29:17;;;;;;;15.32;11.40;;;;;;;;;;5026305;28;20512;-63
2022/07/24 06:31:46;;;;;;;14.10;10.73;;;;;;;;;;5021548;28;20049;-64
2022/07/24 06:34:13;;;;;;;14.45;10.82;;;;;;;;;;5024889;28;20448;-64
2022/07/24 06:36:40;;;;;;;16.40;10.98;;;;;;;;;;5004612;28;20144;-63
2022/07/24 06:39:08;;;;;;;13.35;10.52;;;;;;;;;;5008316;28;20107;-64
2022/07/24 06:41:35;;;;;;;13.55;10.00;;;;;;;;;;5007095;28;20067;-64
2022/07/24 06:44:02;;;;;;;12.90;9.02;;;;;;;;;;5020522;28;20049;-63
2022/07/24 06:46:29;;;;;;;12.00;9.10;;;;;;;;;;5024028;28;20053;-64
2022/07/24 06:48:58;;;;;;;12.82;8.73;;;;;;;;;;4999058;28;20054;-64
2022/07/24 06:51:25;;;;;;;10.88;8.85;;;;;;;;;;5008366;28;20057;-64
2022/07/24 06:53:52;;;;;;;17.70;8.07;;;;;;;;;;5024940;28;20055;-64
2022/07/24 06:56:19;;;;;;;12.30;7.88;;;;;;;;;;5022468;28;20053;-64
2022/07/24 06:58:47;;;;;;;11.85;8.82;;;;;;;;;;5025046;28;20049;-63
2022/07/24 07:01:14;;;;;;;10.57;8.23;;;;;;;;;;5022251;28;20053;-65
2022/07/24 07:03:42;;;;;;;14.50;8.60;;;;;;;;;;5012375;28;20046;-63
2022/07/24 07:06:10;;;;;;;12.40;8.50;;;;;;;;;;5023880;28;20060;-64
2022/07/24 07:08:38;;;;;;;13.48;7.63;;;;;;;;;;5018126;28;20053;-64
2022/07/24 07:11:05;;;;;;;11.93;7.05;;;;;;;;;;5016834;28;20041;-64
2022/07/24 07:13:32;;;;;;;11.10;6.85;;;;;;;;;;5022254;28;20054;-63
2022/07/24 07:15:59;;;;;;;10.77;5.88;;;;;;;;;;5018387;28;20045;-64
2022/07/24 07:18:26;;;;;;;9.13;4.93;;;;;;;;;;5018383;28;20416;-63
2022/07/24 07:20:54;;;;;;;8.50;4.85;;;;;;;;;;5005670;28;20497;-64
2022/07/24 07:23:24;;;;;;;11.52;4.50;;;;;;;;;;5024483;28;20081;-63
2022/07/24 07:25:51;;;;;;;8.20;4.88;;;;;;;;;;5020128;28;20068;-64
2022/07/24 07:28:18;;;;;;;8.65;3.75;;;;;;;;;;5004721;28;20057;-64
2022/07/24 07:30:45;;;;;;;5.95;3.25;;;;;;;;;;5000172;28;20050;-63
2022/07/24 07:33:13;;;;;;;5.20;3.42;;;;;;;;;;5012880;28;20061;-65
2022/07/24 07:35:40;;;;;;;7.80;4.00;;;;;;;;;;5021703;28;20052;-64
2022/07/24 07:38:07;;;;;;;8.93;3.88;;;;;;;;;;5019696;28;20103;-64
2022/07/24 07:40:36;;;;;;;7.03;3.40;;;;;;;;;;5025246;28;20076;-64
2022/07/24 07:43:03;;;;;;;6.10;3.85;;;;;;;;;;5022068;28;20115;-64
2022/07/24 07:45:30;;;;;;;7.75;3.92;;;;;;;;;;5021518;28;20049;-64
2022/07/24 07:47:57;;;;;;;8.55;3.83;;;;;;;;;;5020952;28;20095;-64
2022/07/24 07:50:25;;;;;;;7.13;3.47;;;;;;;;;;5024816;28;20053;-64
2022/07/24 07:52:52;;;;;;;10.10;3.63;;;;;;;;;;5021240;28;20049;-64
2022/07/24 07:55:19;;;;;;;9.05;3.67;;;;;;;;;;5024703;28;20405;-64
2022/07/24 07:57:49;;;;;;;7.78;3.58;;;;;;;;;;5022529;28;20100;-64
2022/07/24 08:00:17;;;;;;;7.68;3.53;;;;;;;;;;5024369;28;20049;-64
2022/07/24 08:02:44;;;;;;;6.57;3.40;;;;;;;;;;5023636;28;20049;-64
2022/07/24 08:05:11;;;;;;;6.90;3.45;;;;;;;;;;5022123;28;20049;-63
2022/07/24 08:07:39;;;;;;;8.88;3.85;;;;;;;;;;5016457;28;20042;-64
2022/07/24 08:10:06;;;;;;;7.25;3.70;;;;;;;;;;5016327;28;20080;-64
2022/07/24 08:12:34;;;;;;;6.15;3.67;;;;;;;;;;5003036;28;20065;-65
2022/07/24 08:15:02;;;;;;;8.35;3.85;;;;;;;;;;5013880;28;20061;-64
2022/07/24 08:17:29;;;;;;;7.70;3.60;;;;;;;;;;5021518;28;20057;-64
2022/07/24 08:19:56;;;;;;;7.30;3.67;;;;;;;;;;5025094;28;20096;-64
2022/07/24 08:22:24;;;;;;;7.03;3.17;;;;;;;;;;5028446;28;20049;-64
2022/07/24 08:24:51;;;;;;;7.78;3.40;;;;;;;;;;5028407;28;20080;-64
2022/07/24 08:27:18;;;;;;;7.20;3.00;;;;;;;;;;5026827;28;20496;-64
2022/07/24 08:29:45;;;;;;;10.52;3.60;;;;;;;;;;5028754;28;20045;-64
2022/07/24 08:32:14;;;;;;;6.72;3.10;;;;;;;;;;5029064;28;20091;-65
2022/07/24 08:34:41;;;;;;;5.97;3.05;;;;;;;;;;5020989;28;20057;-65
2022/07/24 08:37:08;;;;;;;5.47;2.63;;;;;;;;;;5025902;28;20050;-64
2022/07/24 08:39:36;;;;;;;7.53;2.80;;;;;;;;;;5024986;28;20076;-64
2022/07/24 08:42:03;;;;;;;5.78;3.00;;;;;;;;;;5023565;28;20547;-65
2022/07/24 08:44:30;;;;;;;8.52;3.15;;;;;;;;;;5027748;28;20099;-64
2022/07/24 08:47:00;;;;;;;6.75;3.20;;;;;;;;;;5024396;28;20408;-64
2022/07/24 08:49:29;;;;;;;9.35;3.33;;;;;;;;;;5027515;28;20050;-64
2022/07/24 08:51:57;;;;;;;12.50;3.88;;;;;;;;;;5027316;28;20092;-65
2022/07/24 08:54:25;;;;;;;5.85;3.20;;;;;;;;;;5022409;28;20053;-64
2022/07/24 08:56:52;;;;;;;6.60;2.97;;;;;;;;;;5027585;28;20049;-64
2022/07/24 08:59:21;;;;;;;5.47;2.90;;;;;;;;;;5021426;28;20053;-64
2022/07/24 09:01:49;;;;;;;6.35;3.40;;;;;;;;;;5024360;28;20056;-65
2022/07/24 09:04:37;;;;;;;5.70;2.85;;;;;;;;;;5021674;28;20045;-65
2022/07/24 09:07:05;;;;;;;4.78;2.90;;;;;;;;;;5025007;28;20443;-64
2022/07/24 09:09:32;;;;;;;5.43;3.10;;;;;;;;;;5020169;28;20104;-64
2022/07/24 09:12:06;;;;;;;4.57;2.80;;;;;;;;;;5017890;28;20112;-64
2022/07/24 09:14:34;;;;;;;6.40;3.45;;;;;;;;;;5020709;28;20049;-63
2022/07/24 09:17:05;;;;;;;6.25;2.78;;;;;;;;;;5023669;28;20442;-64
2022/07/24 09:19:33;;;;;;;4.68;2.60;;;;;;;;;;5021543;28;20055;-64
2022/07/24 09:22:01;;;;;;;9.30;3.20;;;;;;;;;;5007416;28;20069;-64
2022/07/24 09:24:28;;;;;;;10.65;2.90;;;;;;;;;;5025817;28;20049;-64
2022/07/24 09:26:57;;;;;;;7.00;2.90;;;;;;;;;;5008342;28;20076;-64
2022/07/24 09:29:26;;;;;;;6.50;3.10;;;;;;;;;;5006974;28;20053;-65
2022/07/24 09:31:55;;;;;;;7.47;3.03;;;;;;;;;;5020823;28;20065;-64
2022/07/24 09:34:22;;;;;;;5.45;2.97;;;;;;;;;;5017270;28;20721;-64
2022/07/24 09:36:56;;;;;;;10.27;3.17;;;;;;;;;;5023989;28;20111;-64
2022/07/24 09:39:26;;;;;;;7.15;3.22;;;;;;;;;;5026185;28;20113;-64
2022/07/24 09:41:54;;;;;;;7.50;2.97;;;;;;;;;;5027314;28;20054;-64
2022/07/24 09:44:23;;;;;;;6.03;3.10;;;;;;;;;;5027566;28;20045;-65
2022/07/24 09:46:56;;;;;;;8.55;3.38;;;;;;;;;;5023281;28;20053;-65
2022/07/24 09:49:24;;;;;;;8.27;3.20;;;;;;;;;;5026804;28;20053;-64
2022/07/24 09:52:06;;;;;;;5.03;2.60;;;;;;;;;;5002926;28;20514;-65
2022/07/24 09:54:35;;;;;;;8.50;2.63;;;;;;;;;;5024760;28;20052;-65
2022/07/24 09:57:15;;;;;;;4.82;2.40;;;;;;;;;;5020573;28;20503;-64
2022/07/24 09:59:44;;;;;;;4.28;2.20;;;;;;;;;;5023603;28;20053;-65
2022/07/24 10:02:14;;;;;;;6.78;2.40;;;;;;;;;;5022591;28;20056;-64
2022/07/24 10:04:43;;;;;;;6.00;2.38;;;;;;;;;;5024600;28;20041;-64
2022/07/24 10:07:11;;;;;;;5.95;2.20;;;;;;;;;;5008377;28;20560;-66
2022/07/24 10:09:42;;;;;;;6.25;2.17;;;;;;;;;;5023367;28;20121;-64
2022/07/24 10:12:13;;;;;;;6.80;2.35;;;;;;;;;;5020687;28;20126;-64
2022/07/24 10:14:40;;;;;;;4.10;2.40;;;;;;;;;;5023223;28;20053;-66
2022/07/24 10:17:08;;;;;;;6.00;2.45;;;;;;;;;;5020104;28;20045;-65
2022/07/24 10:19:40;;;;;;;3.90;2.05;;;;;;;;;;5023023;28;20046;-65
2022/07/24 10:22:10;;;;;;;4.78;2.13;;;;;;;;;;5020822;28;20115;-65
2022/07/24 10:24:48;;;;;;;3.58;2.17;;;;;;;;;;4999040;28;20049;-64
2022/07/24 10:27:23;;;;;;;5.43;2.45;;;;;;;;;;5024958;28;20057;-65
2022/07/24 10:29:53;;;;;;;6.97;2.10;;;;;;;;;;5005405;28;20578;-65
2022/07/24 10:32:20;;;;;;;5.38;2.10;;;;;;;;;;5016948;28;20057;-65
2022/07/24 10:34:49;;;;;;;5.93;2.30;;;;;;;;;;5022751;28;20562;-65
2022/07/24 10:37:23;;;;;;;7.15;2.25;;;;;;;;;;5023936;28;20369;-66
2022/07/24 10:40:00;;;;;;;6.47;2.47;;;;;;;;;;5020188;28;20069;-65
2022/07/24 10:42:27;;;;;;;4.57;2.00;;;;;;;;;;5019278;28;20052;-65
2022/07/24 10:45:13;;;;;;;7.38;2.63;;;;;;;;;;5025176;28;20080;-65
2022/07/24 10:47:40;;;;;;;8.13;2.10;;;;;;;;;;5020389;28;20060;-65
2022/07/24 10:50:07;;;;;;;3.72;2.03;;;;;;;;;;5022183;28;20057;-65
2022/07/24 10:52:36;;;;;;;6.40;2.30;;;;;;;;;;5003060;28;20512;-65
2022/07/24 10:55:26;;;;;;;7.18;2.00;;;;;;;;;;5021734;28;20057;-65
2022/07/24 10:57:57;;;;;;;7.05;2.47;;;;;;;;;;5021356;28;20061;-65
2022/07/24 11:00:24;;;;;;;5.35;2.10;;;;;;;;;;5007088;28;20049;-64
2022/07/24 11:03:02;;;;;;;6.10;2.00;;;;;;;;;;5023736;28;20049;-65
2022/07/24 11:05:33;;;;;;;3.45;2.22;;;;;;;;;;5019981;28;20112;-65
2022/07/24 11:08:19;;;;;;;3.25;1.80;;;;;;;;;;5006530;28;20076;-65
2022/07/24 11:10:48;;;;;;;5.75;1.90;;;;;;;;;;5019077;28;20045;-65
2022/07/24 11:13:34;;;;;;;4.88;1.88;;;;;;;;;;4998495;28;20049;-65
2022/07/24 11:16:18;;;;;;;4.88;1.80;;;;;;;;;;5022664;28;20115;-64
2022/07/24 11:19:00;;;;;;;6.80;2.10;;;;;;;;;;5024435;28;20076;-65
2022/07/24 11:21:29;;;;;;;6.95;1.95;;;;;;;;;;5023181;28;20050;-65
2022/07/24 11:24:11;;;;;;;4.50;1.90;;;;;;;;;;5021599;28;20053;-65
2022/07/24 11:26:41;;;;;;;4.43;1.83;;;;;;;;;;5020836;28;20099;-65
2022/07/24 11:29:13;;;;;;;5.85;2.08;;;;;;;;;;5004705;28;20065;-65
2022/07/24 11:31:41;;;;;;;6.47;1.95;;;;;;;;;;5000813;28;20056;-65
2022/07/24 11:34:09;;;;;;;4.20;2.47;;;;;;;;;;5018846;28;20079;-65
2022/07/24 11:36:37;;;;;;;8.18;2.13;;;;;;;;;;5018667;28;20485;-65
2022/07/24 11:39:04;;;;;;;6.20;1.88;;;;;;;;;;5017630;28;20053;-65
2022/07/24 11:41:46;;;;;;;8.65;1.90;;;;;;;;;;5002492;28;20290;-65
2022/07/24 11:44:13;;;;;;;5.97;1.75;;;;;;;;;;5018474;28;20088;-65
2022/07/24 11:46:41;;;;;;;12.27;1.90;;;;;;;;;;5020657;28;20049;-66
2022/07/24 11:49:09;;;;;;;9.25;2.25;;;;;;;;;;5023116;28;20417;-65
2022/07/24 11:51:42;;;;;;;6.53;2.05;;;;;;;;;;5022929;28;20049;-66
2022/07/24 11:54:09;;;;;;;4.85;1.88;;;;;;;;;;5020179;28;20045;-65
2022/07/24 11:56:36;;;;;;;5.93;1.80;;;;;;;;;;5003761;28;20057;-65
2022/07/24 11:59:05;;;;;;;4.05;1.92;;;;;;;;;;5021402;28;20053;-66
2022/07/24 12:01:32;;;;;;;2.97;1.75;;;;;;;;;;5023848;28;20056;-64
2022/07/24 12:04:00;;;;;;;3.60;1.90;;;;;;;;;;5016566;28;20492;-66
2022/07/24 12:06:28;;;;;;;4.97;1.88;;;;;;;;;;5024299;28;20136;-65
2022/07/24 12:08:58;;;;;;;3.60;1.70;;;;;;;;;;5015863;28;20053;-65
2022/07/24 12:11:26;;;;;;;4.68;1.98;;;;;;;;;;5017553;28;20038;-66
2022/07/24 12:13:53;;;;;;;4.85;1.90;;;;;;;;;;5020288;28;20050;-65
2022/07/24 12:16:29;;;;;;;3.28;1.80;;;;;;;;;;5019518;28;20053;-65
2022/07/24 12:19:11;;;;;;;5.03;2.17;;;;;;;;;;5022562;28;20128;-66
2022/07/24 12:21:39;;;;;;;5.15;1.80;;;;;;;;;;5019400;28;20068;-66
2022/07/24 12:24:07;;;;;;;4.38;1.95;;;;;;;;;;5023102;28;20050;-66
2022/07/24 12:26:34;;;;;;;3.33;1.73;;;;;;;;;;5021959;28;20053;-65
2022/07/24 12:29:10;;;;;;;2.78;1.70;;;;;;;;;;5024404;28;20060;-66
2022/07/24 12:31:38;;;;;;;9.35;2.42;;;;;;;;;;5014884;28;20693;-66
2022/07/24 12:34:06;;;;;;;5.53;1.80;;;;;;;;;;5019959;28;20097;-66
2022/07/24 12:36:33;;;;;;;2.65;1.80;;;;;;;;;;4999827;28;20054;-65
2022/07/24 12:39:01;;;;;;;2.22;1.65;;;;;;;;;;5023087;28;20617;-65
2022/07/24 12:41:30;;;;;;;2.97;1.58;;;;;;;;;;4998941;28;20045;-65
2022/07/24 12:44:00;;;;;;;3.55;1.75;;;;;;;;;;5006441;28;20555;-65
2022/07/24 12:46:31;;;;;;;7.05;1.85;;;;;;;;;;5021182;28;20045;-65
2022/07/24 12:49:03;;;;;;;4.55;1.60;;;;;;;;;;5021481;28;20061;-66
2022/07/24 12:51:45;;;;;;;3.97;1.60;;;;;;;;;;5017393;28;20049;-66
2022/07/24 12:54:16;;;;;;;6.18;1.60;;;;;;;;;;5018984;28;20052;-66
2022/07/24 12:56:43;;;;;;;5.00;1.88;;;;;;;;;;5021192;28;20114;-65
2022/07/24 12:59:11;;;;;;;4.38;1.40;;;;;;;;;;5022984;28;20053;-65
2022/07/24 13:01:46;;;;;;;3.20;1.60;;;;;;;;;;5023189;28;20107;-66
2022/07/24 13:04:14;;;;;;;3.92;1.70;;;;;;;;;;5023521;28;20124;-66
2022/07/24 13:06:43;;;;;;;4.18;1.60;;;;;;;;;;5024898;28;20045;-65
2022/07/24 13:09:11;;;;;;;3.60;2.00;;;;;;;;;;5011366;28;20062;-65
2022/07/24 13:11:39;;;;;;;5.68;1.80;;;;;;;;;;5022634;28;20045;-65
2022/07/24 13:14:06;;;;;;;3.58;1.92;;;;;;;;;;5027809;28;20057;-66
2022/07/24 13:16:34;;;;;;;5.38;1.65;;;;;;;;;;5026240;28;20056;-65
2022/07/24 13:19:02;;;;;;;2.50;1.60;;;;;;;;;;5026769;28;20049;-65
2022/07/24 13:21:31;;;;;;;2.50;1.90;;;;;;;;;;5025650;28;20057;-66
2022/07/24 13:23:58;;;;;;;4.78;1.95;;;;;;;;;;5026788;28;20080;-65
2022/07/24 13:26:26;;;;;;;6.13;1.98;;;;;;;;;;5025665;28;20056;-65
2022/07/24 13:28:53;;;;;;;4.30;1.80;;;;;;;;;;5027697;28;20416;-65
2022/07/24 13:31:20;;;;;;;3.97;1.85;;;;;;;;;;5021271;28;20049;-65
2022/07/24 13:33:48;;;;;;;2.65;1.73;;;;;;;;;;5025856;28;20049;-65
2022/07/24 13:36:15;;;;;;;2.53;1.63;;;;;;;;;;5021980;28;20133;-66
2022/07/24 13:38:44;;;;;;;5.18;2.00;;;;;;;;;;5027763;28;20053;-66
2022/07/24 13:41:11;;;;;;;5.97;2.03;;;;;;;;;;5017986;28;20042;-65
2022/07/24 13:43:38;;;;;;;4.22;1.88;;;;;;;;;;5027897;28;20056;-66
2022/07/24 13:46:06;;;;;;;4.00;1.80;;;;;;;;;;5019938;28;20056;-65
2022/07/24 13:48:33;;;;;;;4.68;1.75;;;;;;;;;;5006428;28;20057;-65
2022/07/24 13:51:00;;;;;;;4.90;2.05;;;;;;;;;;5024934;28;20057;-66
2022/07/24 13:53:28;;;;;;;2.00;1.63;;;;;;;;;;5024808;28;20056;-66
2022/07/24 13:55:56;;;;;;;2.33;1.70;;;;;;;;;;5022263;28;20057;-65
2022/07/24 13:58:23;;;;;;;2.25;1.75;;;;;;;;;;5026583;28;20057;-66
2022/07/24 14:00:51;;;;;;;4.28;2.00;;;;;;;;;;5008565;28;20061;-65
2022/07/24 14:03:18;;;;;;;5.22;1.85;;;;;;;;;;5025691;28;20053;-66
2022/07/24 14:05:45;;;;;;;2.70;1.98;;;;;;;;;;5024659;28;20452;-65
2022/07/24 14:08:12;;;;;;;5.68;1.90;;;;;;;;;;5023299;28;20060;-65
2022/07/24 14:10:39;;;;;;;3.15;2.10;;;;;;;;;;5021266;28;20133;-66
2022/07/24 14:13:08;;;;;;;3.28;1.98;;;;;;;;;;5022242;28;20493;-66
2022/07/24 14:15:35;;;;;;;3.72;2.20;;;;;;;;;;5020261;28;20054;-66
2022/07/24 14:18:02;;;;;;;3.50;2.08;;;;;;;;;;5022798;28;20088;-66
2022/07/24 14:20:30;;;;;;;4.95;2.65;;;;;;;;;;5022449;28;20041;-66
2022/07/24 14:22:57;;;;;;;4.85;2.40;;;;;;;;;;5025444;28;20057;-66
2022/07/24 14:25:24;;;;;;;4.25;2.30;;;;;;;;;;5021769;28;20060;-66
2022/07/24 14:27:51;;;;;;;3.45;2.20;;;;;;;;;;5006643;28;20064;-66
2022/07/24 14:30:20;;;;;;;4.70;2.08;;;;;;;;;;5026353;28;20056;-66
2022/07/24 14:32:47;;;;;;;3.80;2.30;;;;;;;;;;5027252;28;20037;-66
2022/07/24 14:35:14;;;;;;;5.10;2.55;;;;;;;;;;5025684;28;20057;-66
2022/07/24 14:37:42;;;;;;;3.67;2.38;;;;;;;;;;5008303;28;20430;-66
2022/07/24 14:40:10;;;;;;;3.20;2.33;;;;;;;;;;5006765;28;20133;-66
2022/07/24 14:42:37;;;;;;;8.45;2.50;;;;;;;;;;5026162;28;20580;-66
2022/07/24 14:45:05;;;;;;;3.95;2.85;;;;;;;;;;5022504;28;20115;-66